createdAt,value
2022-12-25T00:01:13.983Z,9.70
2022-12-25T00:03:48.987Z,9.60
2022-12-25T00:06:18.983Z,9.20
2022-12-25T00:08:47.215Z,9.10
2022-12-25T00:11:19.680Z,9.30
2022-12-25T00:13:48.719Z,10.60
2022-12-25T00:16:22.412Z,10.70
2022-12-25T00:18:53.900Z,9.00
2022-12-25T00:21:22.582Z,8.70
2022-12-25T00:23:56.163Z,9.30
2022-12-25T00:26:26.337Z,9.90
2022-12-25T00:28:56.796Z,9.40
2022-12-25T00:31:26.431Z,8.50
2022-12-25T00:33:54.787Z,8.90
2022-12-25T00:36:23.723Z,8.80
2022-12-25T00:38:51.942Z,8.40
2022-12-25T00:41:43.233Z,8.90
2022-12-25T00:44:14.006Z,10.30
2022-12-25T00:46:43.581Z,10.20
2022-12-25T00:49:12.468Z,9.10
2022-12-25T00:51:40.598Z,10.00
2022-12-25T00:54:08.843Z,9.70
2022-12-25T00:56:36.938Z,10.20
2022-12-25T00:59:05.042Z,9.50
2022-12-25T01:01:33.713Z,9.80
2022-12-25T01:04:02.074Z,10.40
2022-12-25T01:06:30.591Z,10.50
2022-12-25T01:09:17.545Z,10.40
2022-12-25T01:11:46.179Z,9.00
2022-12-25T01:14:14.428Z,9.10
2022-12-25T01:16:42.745Z,9.60
2022-12-25T01:19:11.331Z,10.70
2022-12-25T01:21:39.797Z,9.60
2022-12-25T01:24:08.431Z,7.90
2022-12-25T01:26:36.629Z,9.10
2022-12-25T01:29:04.796Z,9.10
2022-12-25T01:31:32.959Z,9.30
2022-12-25T01:34:01.087Z,8.60
2022-12-25T01:36:29.238Z,8.00
2022-12-25T01:38:57.399Z,9.60
2022-12-25T01:41:25.668Z,9.00
2022-12-25T01:44:37.018Z,8.20
2022-12-25T01:47:07.065Z,9.10
2022-12-25T01:49:39.080Z,9.50
2022-12-25T01:52:18.808Z,8.90
2022-12-25T01:55:05.579Z,9.00
2022-12-25T01:57:37.960Z,8.80
2022-12-25T02:00:08.661Z,9.60
2022-12-25T02:02:38.421Z,8.90
2022-12-25T02:05:25.665Z,9.10
2022-12-25T02:07:55.417Z,9.10
2022-12-25T02:10:24.055Z,9.50
2022-12-25T02:12:53.144Z,9.30
2022-12-25T02:15:27.792Z,10.00
2022-12-25T02:18:16.049Z,9.90
2022-12-25T02:21:26.468Z,10.80
2022-12-25T02:24:03.596Z,10.00
2022-12-25T02:26:43.735Z,9.60
2022-12-25T02:29:52.183Z,9.00
2022-12-25T02:33:21.943Z,10.20
2022-12-25T02:35:56.273Z,10.40
2022-12-25T02:39:00.019Z,9.40
2022-12-25T02:41:33.151Z,9.70
2022-12-25T02:44:26.048Z,7.70
2022-12-25T02:47:13.127Z,8.90
2022-12-25T02:50:02.402Z,7.90
2022-12-25T02:52:49.960Z,8.50
2022-12-25T02:55:52.585Z,9.10
2022-12-25T02:58:42.940Z,8.10
2022-12-25T03:01:38.532Z,9.30
2022-12-25T03:04:32.419Z,8.70
2022-12-25T03:10:04.978Z,8.30
2022-12-25T03:12:50.012Z,9.10
2022-12-25T03:15:39.302Z,9.40
2022-12-25T03:18:16.366Z,9.30
2022-12-25T03:21:03.149Z,9.00
2022-12-25T03:23:53.873Z,9.40
2022-12-25T03:26:41.076Z,9.30
2022-12-25T03:29:09.232Z,10.00
2022-12-25T03:31:50.754Z,9.40
2022-12-25T03:35:02.071Z,9.70
2022-12-25T03:38:49.616Z,9.30
2022-12-25T03:42:09.625Z,9.70
2022-12-25T03:45:35.869Z,9.60
2022-12-25T03:48:11.593Z,10.50
2022-12-25T03:51:11.904Z,9.80
2022-12-25T03:54:15.226Z,9.40
2022-12-25T03:57:03.010Z,9.90
2022-12-25T03:59:50.278Z,8.40
2022-12-25T04:02:37.431Z,10.00
2022-12-25T04:05:25.007Z,9.30
2022-12-25T04:08:11.631Z,10.30
2022-12-25T04:10:58.461Z,8.80
2022-12-25T04:13:45.399Z,9.50
2022-12-25T04:16:32.259Z,9.70
2022-12-25T04:19:19.018Z,11.80
2022-12-25T04:22:06.032Z,11.20
2022-12-25T04:24:52.712Z,9.90
2022-12-25T04:27:39.866Z,7.90
2022-12-25T04:30:28.033Z,7.60
2022-12-25T04:33:18.071Z,7.20
2022-12-25T04:36:43.735Z,6.40
2022-12-25T04:39:11.919Z,7.00
2022-12-25T04:41:40.022Z,7.50
2022-12-25T04:44:09.410Z,7.90
2022-12-25T04:46:37.580Z,8.60
2022-12-25T04:49:05.760Z,8.10
2022-12-25T04:51:34.054Z,7.80
2022-12-25T04:54:02.236Z,7.90
2022-12-25T04:56:30.445Z,8.40
2022-12-25T04:58:58.593Z,7.50
2022-12-25T05:01:27.138Z,8.00
2022-12-25T05:03:55.526Z,8.10
2022-12-25T05:06:23.743Z,7.30
2022-12-25T05:08:51.869Z,7.30
2022-12-25T05:11:20.080Z,7.70
2022-12-25T05:13:48.312Z,7.10
2022-12-25T05:16:20.261Z,9.60
2022-12-25T05:18:51.330Z,11.80
2022-12-25T05:21:19.757Z,10.00
2022-12-25T05:23:52.733Z,8.70
2022-12-25T05:26:25.739Z,9.50
2022-12-25T05:28:54.580Z,9.40
2022-12-25T05:31:22.994Z,8.80
2022-12-25T05:33:52.850Z,9.40
2022-12-25T05:36:21.258Z,9.00
2022-12-25T05:38:50.646Z,8.00
2022-12-25T05:41:18.939Z,7.60
2022-12-25T05:43:47.039Z,7.60
2022-12-25T05:46:15.220Z,7.60
2022-12-25T05:48:43.496Z,7.40
2022-12-25T05:51:14.055Z,7.10
2022-12-25T05:53:43.698Z,7.60
2022-12-25T05:56:11.905Z,7.00
2022-12-25T05:58:41.081Z,7.70
2022-12-25T06:01:22.126Z,7.40
2022-12-25T06:03:50.420Z,8.10
2022-12-25T06:06:18.981Z,8.10
2022-12-25T06:08:47.208Z,7.90
2022-12-25T06:11:16.032Z,7.70
2022-12-25T06:13:44.227Z,7.50
2022-12-25T06:16:12.769Z,7.80
2022-12-25T06:18:44.929Z,7.50
2022-12-25T06:21:15.065Z,41.00
2022-12-25T06:23:43.960Z,9.70
2022-12-25T06:26:17.729Z,9.60
2022-12-25T06:28:46.243Z,9.60
2022-12-25T06:31:21.876Z,10.20
2022-12-25T06:33:50.132Z,9.50
2022-12-25T06:36:29.543Z,10.30
2022-12-25T06:39:01.362Z,11.20
2022-12-25T06:41:30.965Z,16.10
2022-12-25T06:44:01.331Z,13.90
2022-12-25T06:46:30.889Z,11.20
2022-12-25T06:49:00.576Z,9.60
2022-12-25T06:51:31.230Z,9.40
2022-12-25T06:54:04.019Z,9.40
2022-12-25T06:56:33.653Z,9.80
2022-12-25T06:59:10.197Z,9.90
2022-12-25T07:01:48.654Z,10.30
2022-12-25T07:04:35.659Z,11.60
2022-12-25T07:07:09.073Z,13.80
2022-12-25T07:09:39.160Z,12.80
2022-12-25T07:12:13.691Z,10.40
2022-12-25T07:14:42.775Z,10.60
2022-12-25T07:17:11.717Z,9.00
2022-12-25T07:19:44.612Z,10.30
2022-12-25T07:22:14.899Z,9.50
2022-12-25T07:24:43.498Z,9.40
2022-12-25T07:27:11.832Z,9.30
2022-12-25T07:29:39.987Z,8.70
2022-12-25T07:32:08.674Z,8.80
2022-12-25T07:34:36.859Z,9.60
2022-12-25T07:37:04.954Z,8.80
2022-12-25T07:39:35.379Z,9.10
2022-12-25T07:42:04.131Z,8.40
2022-12-25T07:44:32.821Z,9.30
2022-12-25T07:47:00.951Z,8.90
2022-12-25T07:49:29.153Z,9.20
2022-12-25T07:51:57.446Z,10.20
2022-12-25T07:54:25.619Z,9.70
2022-12-25T07:56:54.151Z,10.30
2022-12-25T07:59:22.221Z,9.90
2022-12-25T08:01:50.720Z,9.70
2022-12-25T08:04:19.184Z,12.10
2022-12-25T08:06:47.416Z,12.50
2022-12-25T08:09:15.818Z,14.20
2022-12-25T08:11:47.619Z,11.10
2022-12-25T08:14:15.802Z,10.30
2022-12-25T08:16:44.705Z,10.20
2022-12-25T08:19:14.511Z,11.10
2022-12-25T08:21:42.711Z,14.00
2022-12-25T08:24:10.898Z,24.70
2022-12-25T08:26:39.037Z,21.20
2022-12-25T08:29:07.126Z,19.30
2022-12-25T08:31:38.259Z,15.60
2022-12-25T08:34:10.851Z,12.00
2022-12-25T08:36:38.983Z,9.80
2022-12-25T08:39:08.438Z,9.60
2022-12-25T08:41:36.618Z,8.50
2022-12-25T08:44:06.161Z,7.60
2022-12-25T08:46:34.429Z,8.00
2022-12-25T08:49:02.653Z,7.70
2022-12-25T08:51:30.790Z,7.70
2022-12-25T08:54:01.051Z,7.00
2022-12-25T08:56:29.352Z,8.20
2022-12-25T08:58:57.635Z,7.10
2022-12-25T09:01:26.042Z,7.10
2022-12-25T09:03:54.288Z,7.50
2022-12-25T09:06:22.473Z,7.10
2022-12-25T09:08:50.569Z,7.20
2022-12-25T09:11:20.105Z,7.80
2022-12-25T09:13:49.347Z,7.60
2022-12-25T09:16:21.625Z,7.60
2022-12-25T09:18:50.299Z,6.50
2022-12-25T09:21:19.439Z,6.50
2022-12-25T09:23:48.099Z,7.10
2022-12-25T09:26:19.053Z,7.00
2022-12-25T09:28:51.878Z,7.20
2022-12-25T09:31:22.933Z,7.20
2022-12-25T09:33:52.039Z,13.70
2022-12-25T09:36:23.436Z,16.40
2022-12-25T09:38:52.661Z,22.70
2022-12-25T09:41:51.974Z,27.30
2022-12-25T09:44:26.949Z,20.70
2022-12-25T09:47:04.533Z,20.50
2022-12-25T09:50:11.725Z,12.80
2022-12-25T09:52:58.642Z,12.00
2022-12-25T09:55:31.961Z,11.20
2022-12-25T09:58:10.028Z,10.20
2022-12-25T10:00:49.367Z,11.30
2022-12-25T10:03:41.905Z,9.90
2022-12-25T10:06:38.773Z,7.10
2022-12-25T10:09:30.533Z,7.10
2022-12-25T10:12:50.496Z,7.20
2022-12-25T10:15:46.951Z,6.10
2022-12-25T10:18:45.656Z,6.80
2022-12-25T10:21:18.380Z,6.40
2022-12-25T10:23:55.268Z,6.30
2022-12-25T10:26:27.056Z,5.40
2022-12-25T10:29:22.456Z,5.00
2022-12-25T10:31:54.889Z,4.30
2022-12-25T10:34:23.720Z,5.20
2022-12-25T10:36:52.543Z,3.70
2022-12-25T10:39:26.236Z,3.90
2022-12-25T10:42:28.390Z,3.20
2022-12-25T10:45:06.065Z,3.10
2022-12-25T10:47:44.160Z,2.50
2022-12-25T10:50:17.654Z,2.70
2022-12-25T10:52:59.498Z,2.80
2022-12-25T10:55:29.549Z,3.20
2022-12-25T10:57:59.008Z,3.50
2022-12-25T11:00:32.859Z,2.70
2022-12-25T11:03:01.284Z,2.00
2022-12-25T11:05:33.171Z,1.60
2022-12-25T11:08:03.147Z,1.80
2022-12-25T11:10:42.733Z,1.70
2022-12-25T11:13:26.976Z,2.00
2022-12-25T11:16:14.242Z,1.70
2022-12-25T11:18:48.831Z,2.70
2022-12-25T11:21:26.944Z,1.50
2022-12-25T11:24:04.634Z,1.20
2022-12-25T11:26:54.014Z,1.10
2022-12-25T11:29:48.941Z,1.20
2022-12-25T11:32:43.619Z,1.10
2022-12-25T11:35:18.052Z,1.40
2022-12-25T11:37:52.135Z,1.40
2022-12-25T11:40:52.407Z,1.80
2022-12-25T11:43:30.781Z,2.50
2022-12-25T11:46:13.535Z,1.40
2022-12-25T11:49:06.710Z,1.70
2022-12-25T11:51:39.587Z,1.70
2022-12-25T11:54:33.639Z,2.00
2022-12-25T11:57:06.016Z,1.60
2022-12-25T11:59:46.662Z,1.50
2022-12-25T12:02:32.886Z,1.80
2022-12-25T12:05:23.398Z,1.90
2022-12-25T12:08:04.993Z,1.60
2022-12-25T12:11:20.995Z,1.30
2022-12-25T12:14:49.719Z,1.50
2022-12-25T12:17:18.777Z,2.80
2022-12-25T12:19:46.967Z,3.30
2022-12-25T12:32:37.024Z,4.70
2022-12-25T12:35:36.992Z,4.90
2022-12-25T12:38:17.161Z,4.80
2022-12-25T12:41:00.313Z,5.40
2022-12-25T12:43:52.516Z,5.70
2022-12-25T12:46:31.690Z,5.40
2022-12-25T12:49:28.487Z,6.70
2022-12-25T12:52:07.374Z,7.30
2022-12-25T12:54:56.846Z,6.10
2022-12-25T12:57:32.868Z,6.40
2022-12-25T13:00:08.433Z,6.20
2022-12-25T13:03:21.125Z,6.50
2022-12-25T13:06:04.838Z,6.60
2022-12-25T13:08:50.696Z,5.90
2022-12-25T13:11:24.679Z,6.70
2022-12-25T13:13:56.982Z,6.40
2022-12-25T13:16:32.233Z,6.50
2022-12-25T13:19:06.012Z,5.60
2022-12-25T13:21:35.346Z,6.20
2022-12-25T13:24:09.082Z,5.60
2022-12-25T13:26:39.257Z,6.10
2022-12-25T13:29:18.768Z,6.80
2022-12-25T13:31:48.097Z,6.70
2022-12-25T13:34:37.505Z,6.60
2022-12-25T13:37:19.630Z,6.30
2022-12-25T13:39:55.644Z,5.90
2022-12-25T13:42:30.944Z,7.30
2022-12-25T13:45:07.196Z,6.20
2022-12-25T13:47:39.082Z,6.10
2022-12-25T13:50:28.418Z,5.80
2022-12-25T13:53:10.005Z,5.90
2022-12-25T13:55:38.349Z,6.20
2022-12-25T13:58:14.780Z,6.70
2022-12-25T14:00:49.522Z,7.50
2022-12-25T14:03:30.232Z,7.10
2022-12-25T14:06:01.654Z,6.80
2022-12-25T14:08:33.817Z,8.30
2022-12-25T14:11:05.871Z,10.80
2022-12-25T14:13:46.266Z,9.00
2022-12-25T14:16:21.460Z,7.00
2022-12-25T14:19:02.437Z,7.40
2022-12-25T14:21:35.111Z,7.30
2022-12-25T14:24:03.528Z,7.90
2022-12-25T14:26:33.897Z,8.50
2022-12-25T14:29:05.110Z,8.30
2022-12-25T14:31:34.453Z,9.10
2022-12-25T14:34:07.975Z,9.30
2022-12-25T14:36:36.540Z,11.40
2022-12-25T14:39:22.561Z,10.90
2022-12-25T14:41:54.592Z,12.20
2022-12-25T14:44:31.648Z,30.00
2022-12-25T14:47:26.588Z,18.80
2022-12-25T14:49:54.881Z,28.50
2022-12-25T14:52:31.534Z,22.10
2022-12-25T14:55:17.582Z,29.70
2022-12-25T14:57:50.313Z,15.00
2022-12-25T15:00:31.826Z,12.30
2022-12-25T15:03:00.774Z,9.80
2022-12-25T15:05:38.893Z,9.20
2022-12-25T15:08:10.344Z,17.50
2022-12-25T15:13:30.791Z,18.40
2022-12-25T15:16:13.114Z,18.10
2022-12-25T15:18:45.339Z,28.70
2022-12-25T15:21:31.575Z,23.80
2022-12-25T15:24:00.937Z,11.50
2022-12-25T15:26:32.007Z,10.30
2022-12-25T15:29:00.149Z,10.70
2022-12-25T15:31:31.648Z,11.30
2022-12-25T15:34:05.421Z,13.40
2022-12-25T15:36:34.238Z,14.60
2022-12-25T15:39:02.403Z,16.30
2022-12-25T15:41:55.091Z,16.50
2022-12-25T15:44:24.536Z,15.60
2022-12-25T15:46:52.786Z,16.70
2022-12-25T15:49:21.169Z,17.70
2022-12-25T15:51:49.348Z,18.80
2022-12-25T15:54:17.425Z,18.50
2022-12-25T15:56:52.289Z,19.50
2022-12-25T15:59:21.472Z,24.70
2022-12-25T16:01:53.611Z,26.20
2022-12-25T16:04:23.788Z,27.60
2022-12-25T16:06:52.869Z,24.40
2022-12-25T16:09:22.263Z,21.70
2022-12-25T16:11:50.790Z,18.10
2022-12-25T16:14:19.734Z,17.80
2022-12-25T16:16:47.854Z,23.20
2022-12-25T16:19:15.944Z,19.50
2022-12-25T16:21:46.273Z,17.10
2022-12-25T16:24:15.439Z,17.00
2022-12-25T16:26:43.594Z,16.70
2022-12-25T16:29:11.886Z,16.30
2022-12-25T16:31:40.219Z,15.60
2022-12-25T16:34:09.037Z,15.70
2022-12-25T16:36:39.172Z,16.40
2022-12-25T16:39:08.461Z,15.90
2022-12-25T16:41:36.568Z,18.40
2022-12-25T16:44:10.286Z,20.20
2022-12-25T16:46:39.887Z,19.30
2022-12-25T16:49:08.785Z,18.70
2022-12-25T16:51:37.070Z,18.60
2022-12-25T16:54:05.320Z,20.00
2022-12-25T16:56:33.473Z,18.70
2022-12-25T16:59:01.627Z,18.40
2022-12-25T17:01:29.927Z,18.10
2022-12-25T17:04:02.740Z,19.00
2022-12-25T17:06:31.116Z,22.50
2022-12-25T17:09:02.337Z,20.70
2022-12-25T17:11:32.059Z,23.40
2022-12-25T17:14:03.822Z,24.30
2022-12-25T17:16:35.749Z,24.70
2022-12-25T17:19:18.351Z,18.50
2022-12-25T17:21:47.278Z,18.70
2022-12-25T17:24:16.229Z,19.90
2022-12-25T17:26:44.631Z,17.70
2022-12-25T17:29:17.247Z,15.80
2022-12-25T17:31:50.132Z,18.80
2022-12-25T17:34:18.864Z,19.50
2022-12-25T17:36:47.866Z,20.10
2022-12-25T17:39:16.118Z,21.60
2022-12-25T17:41:44.349Z,20.50
2022-12-25T17:44:12.519Z,19.60
2022-12-25T17:46:41.546Z,21.30
2022-12-25T17:49:17.681Z,19.70
2022-12-25T17:51:46.450Z,19.50
2022-12-25T17:54:14.959Z,19.40
2022-12-25T17:56:43.179Z,23.40
2022-12-25T17:59:18.222Z,23.30
2022-12-25T18:01:48.186Z,25.00
2022-12-25T18:04:16.700Z,24.20
2022-12-25T18:06:44.955Z,35.30
2022-12-25T18:09:13.648Z,30.50
2022-12-25T18:11:43.649Z,27.70
2022-12-25T18:14:15.620Z,25.10
2022-12-25T18:16:45.537Z,19.60
2022-12-25T18:19:15.397Z,19.00
2022-12-25T18:21:43.525Z,18.50
2022-12-25T18:24:12.217Z,18.50
2022-12-25T18:26:40.349Z,18.30
2022-12-25T18:29:08.499Z,19.20
2022-12-25T18:31:36.800Z,19.90
2022-12-25T18:34:04.994Z,19.90
2022-12-25T18:36:33.379Z,22.80
2022-12-25T18:39:01.748Z,22.40
2022-12-25T18:41:30.678Z,23.00
2022-12-25T18:43:59.840Z,22.90
2022-12-25T18:46:28.124Z,20.70
2022-12-25T18:48:57.448Z,22.80
2022-12-25T18:51:31.313Z,26.40
2022-12-25T18:54:03.111Z,25.30
2022-12-25T18:56:31.240Z,24.10
2022-12-25T18:59:00.637Z,24.20
2022-12-25T19:01:29.008Z,23.90
2022-12-25T19:04:04.538Z,22.90
2022-12-25T19:06:34.027Z,25.60
2022-12-25T19:09:09.164Z,25.10
2022-12-25T19:11:46.104Z,24.60
2022-12-25T19:14:15.220Z,26.90
2022-12-25T19:16:43.761Z,27.50
2022-12-25T19:19:11.890Z,27.90
2022-12-25T19:21:40.691Z,30.40
2022-12-25T19:24:09.015Z,29.40
2022-12-25T19:26:37.738Z,31.70
2022-12-25T19:29:05.924Z,31.20
2022-12-25T19:31:34.085Z,31.30
2022-12-25T19:34:02.229Z,30.90
2022-12-25T19:36:30.542Z,31.40
2022-12-25T19:38:58.672Z,32.30
2022-12-25T19:41:26.928Z,34.60
2022-12-25T19:43:55.074Z,37.70
2022-12-25T19:46:30.663Z,36.90
2022-12-25T19:49:04.241Z,35.80
2022-12-25T19:51:38.522Z,35.00
2022-12-25T19:54:06.805Z,39.30
2022-12-25T19:56:35.233Z,35.40
2022-12-25T19:59:03.568Z,43.90
2022-12-25T20:01:31.862Z,41.40
2022-12-25T20:04:00.265Z,41.30
2022-12-25T20:06:33.748Z,39.10
2022-12-25T20:09:06.906Z,38.90
2022-12-25T20:14:07.047Z,36.90
2022-12-25T20:16:39.424Z,41.10
2022-12-25T20:19:08.135Z,39.60
2022-12-25T20:21:36.259Z,36.50
2022-12-25T20:24:06.321Z,37.30
2022-12-25T20:26:34.874Z,41.00
2022-12-25T20:29:04.228Z,43.50
2022-12-25T20:31:35.072Z,37.30
2022-12-25T20:34:10.904Z,36.00
2022-12-25T20:36:39.136Z,32.10
2022-12-25T20:39:10.038Z,32.90
2022-12-25T20:41:39.895Z,34.90
2022-12-25T20:44:10.047Z,35.20
2022-12-25T20:46:38.792Z,33.10
2022-12-25T20:49:07.144Z,30.20
2022-12-25T20:51:35.846Z,32.50
2022-12-25T20:54:10.196Z,32.00
2022-12-25T20:56:38.772Z,33.20
2022-12-25T20:59:06.951Z,28.70
2022-12-25T21:01:35.156Z,29.00
2022-12-25T21:04:03.540Z,28.00
2022-12-25T21:06:31.831Z,27.00
2022-12-25T21:09:00.195Z,26.30
2022-12-25T21:11:30.490Z,27.20
2022-12-25T21:13:58.729Z,28.10
2022-12-25T21:16:27.207Z,29.60
2022-12-25T21:18:55.465Z,27.20
2022-12-25T21:21:23.771Z,28.00
2022-12-25T21:23:54.553Z,28.90
2022-12-25T21:26:28.688Z,25.20
2022-12-25T21:29:00.529Z,26.00
2022-12-25T21:31:29.841Z,23.20
2022-12-25T21:33:58.067Z,24.40
2022-12-25T21:36:28.338Z,24.60
2022-12-25T21:38:59.789Z,26.90
2022-12-25T21:41:29.718Z,25.90
2022-12-25T21:43:58.526Z,27.60
2022-12-25T21:46:28.154Z,28.50
2022-12-25T21:48:57.280Z,28.50
2022-12-25T21:51:50.365Z,26.00
2022-12-25T21:54:21.753Z,27.20
2022-12-25T21:56:50.283Z,28.70
2022-12-25T21:59:22.604Z,28.40
2022-12-25T22:01:52.369Z,29.60
2022-12-25T22:04:22.980Z,28.70
2022-12-25T22:07:10.343Z,27.10
2022-12-25T22:09:38.642Z,28.60
2022-12-25T22:12:31.937Z,29.30
2022-12-25T22:15:06.802Z,28.20
2022-12-25T22:17:58.204Z,28.80
2022-12-25T22:20:34.864Z,24.80
2022-12-25T22:23:03.791Z,23.70
2022-12-25T22:25:32.080Z,25.70
2022-12-25T22:28:00.500Z,25.00
2022-12-25T22:30:29.491Z,25.00
2022-12-25T22:32:58.112Z,25.20
2022-12-25T22:35:26.214Z,26.30
2022-12-25T22:37:54.829Z,25.90
2022-12-25T22:40:22.986Z,28.10
2022-12-25T22:42:55.048Z,25.00
2022-12-25T22:45:24.592Z,25.00
2022-12-25T22:47:52.739Z,26.80
2022-12-25T22:50:20.921Z,28.40
2022-12-25T22:52:49.068Z,28.90
2022-12-25T22:55:18.854Z,27.60
2022-12-25T22:57:47.138Z,28.60
2022-12-25T23:00:15.410Z,28.40
2022-12-25T23:02:43.794Z,28.90
2022-12-25T23:05:12.133Z,28.90
2022-12-25T23:07:41.947Z,26.80
2022-12-25T23:10:11.442Z,27.70
2022-12-25T23:12:58.247Z,28.60
2022-12-25T23:15:27.706Z,27.10
2022-12-25T23:18:14.444Z,24.60
2022-12-25T23:21:01.039Z,23.30
2022-12-25T23:23:48.037Z,23.10
2022-12-25T23:26:20.130Z,23.40
2022-12-25T23:29:06.785Z,23.90
2022-12-25T23:31:40.824Z,24.70
2022-12-25T23:34:10.390Z,26.40
2022-12-25T23:36:38.601Z,28.60
2022-12-25T23:39:09.929Z,29.80
2022-12-25T23:41:40.635Z,32.50
2022-12-25T23:44:11.118Z,33.40
2022-12-25T23:46:41.073Z,34.60
2022-12-25T23:49:23.479Z,34.40
2022-12-25T23:51:52.764Z,36.70
2022-12-25T23:54:24.942Z,31.00
2022-12-25T23:56:53.941Z,28.40
2022-12-25T23:59:22.201Z,28.40
